createdAt,value
2022-12-19T00:02:01.224Z,100992.97
2022-12-19T00:04:29.756Z,100988.88
2022-12-19T00:06:59.629Z,100997.88
2022-12-19T00:09:28.754Z,100989.06
2022-12-19T00:11:57.128Z,101002.97
2022-12-19T00:14:25.490Z,101002.31
2022-12-19T00:16:55.186Z,101008.94
2022-12-19T00:19:25.512Z,101004.69
2022-12-19T00:21:53.861Z,101002.34
2022-12-19T00:24:22.251Z,100992.50
2022-12-19T00:26:50.899Z,100991.84
2022-12-19T00:29:19.371Z,100981.19
2022-12-19T00:31:47.896Z,100985.56
2022-12-19T00:34:16.370Z,100984.72
2022-12-19T00:36:46.141Z,100986.22
2022-12-19T00:39:14.528Z,100988.78
2022-12-19T00:41:43.655Z,100988.59
2022-12-19T00:44:15.020Z,100991.97
2022-12-19T00:46:51.035Z,100996.22
2022-12-19T00:49:22.128Z,100991.47
2022-12-19T00:51:51.844Z,100989.59
2022-12-19T00:54:20.321Z,100990.59
2022-12-19T00:56:48.938Z,100995.22
2022-12-19T00:59:18.895Z,100993.69
2022-12-19T01:01:55.429Z,100996.56
2022-12-19T01:04:28.625Z,100999.44
2022-12-19T01:07:01.843Z,100988.94
2022-12-19T01:09:30.738Z,100987.28
2022-12-19T01:12:16.518Z,100976.41
2022-12-19T01:14:44.895Z,100963.19
2022-12-19T01:17:13.472Z,100950.63
2022-12-19T01:19:44.440Z,100954.38
2022-12-19T01:22:15.008Z,100949.97
2022-12-19T01:24:43.562Z,100929.31
2022-12-19T01:27:12.339Z,100923.88
2022-12-19T01:29:52.178Z,100924.56
2022-12-19T01:32:23.347Z,100919.13
2022-12-19T01:34:51.707Z,100920.78
2022-12-19T01:37:21.858Z,100908.09
2022-12-19T01:39:50.392Z,100919.59
2022-12-19T01:42:23.057Z,100916.06
2022-12-19T01:45:32.045Z,100908.94
2022-12-19T01:48:21.623Z,100908.94
2022-12-19T01:51:01.739Z,100907.94
2022-12-19T01:53:48.756Z,100910.47
2022-12-19T01:56:23.687Z,100904.84
2022-12-19T01:59:05.978Z,100900.28
2022-12-19T02:01:36.375Z,100902.78
2022-12-19T02:04:21.047Z,100907.22
2022-12-19T02:06:51.084Z,100902.47
2022-12-19T02:09:21.460Z,100885.16
2022-12-19T02:11:49.904Z,100879.56
2022-12-19T02:14:18.395Z,100886.84
2022-12-19T02:16:56.020Z,100894.97
2022-12-19T02:20:22.332Z,100889.06
2022-12-19T02:23:16.267Z,100880.09
2022-12-19T02:26:14.494Z,100879.41
2022-12-19T02:29:10.095Z,100881.28
2022-12-19T02:31:49.449Z,100890.44
2022-12-19T02:34:27.518Z,100873.34
2022-12-19T02:37:01.382Z,100867.72
2022-12-19T02:39:37.532Z,100867.72
2022-12-19T02:42:10.941Z,100863.16
2022-12-19T02:44:46.234Z,100867.53
2022-12-19T02:47:16.852Z,100867.38
2022-12-19T02:49:45.227Z,100869.91
2022-12-19T02:52:50.290Z,100865.50
2022-12-19T02:55:25.295Z,100854.66
2022-12-19T02:58:30.601Z,100864.66
2022-12-19T03:01:07.397Z,100855.47
2022-12-19T03:03:47.112Z,100855.31
2022-12-19T03:06:25.919Z,100856.34
2022-12-19T03:09:03.273Z,100856.16
2022-12-19T03:11:37.252Z,100871.41
2022-12-19T03:14:09.798Z,100874.78
2022-12-19T03:16:39.193Z,100860.03
2022-12-19T03:19:14.176Z,100863.22
2022-12-19T03:21:46.693Z,100859.81
2022-12-19T03:24:16.203Z,100863.66
2022-12-19T03:26:51.535Z,100868.53
2022-12-19T03:29:26.712Z,100875.13
2022-12-19T03:31:57.092Z,100866.47
2022-12-19T03:34:31.467Z,100856.91
2022-12-19T03:37:05.454Z,100859.94
2022-12-19T03:39:35.560Z,100863.16
2022-12-19T03:42:23.919Z,100870.91
2022-12-19T03:44:54.851Z,100868.88
2022-12-19T03:47:32.275Z,100872.09
2022-12-19T03:50:02.537Z,100869.00
2022-12-19T03:52:40.453Z,100859.66
2022-12-19T03:55:18.193Z,100852.19
2022-12-19T03:57:55.625Z,100852.84
2022-12-19T04:00:25.465Z,100849.94
2022-12-19T04:02:58.497Z,100847.88
2022-12-19T04:05:30.459Z,100835.13
2022-12-19T04:08:03.298Z,100837.50
2022-12-19T04:10:33.976Z,100836.28
2022-12-19T04:13:07.277Z,100837.97
2022-12-19T04:15:46.156Z,100836.09
2022-12-19T04:18:16.208Z,100837.78
2022-12-19T04:20:53.852Z,100850.53
2022-12-19T04:23:30.122Z,100855.75
2022-12-19T04:26:03.259Z,100861.19
2022-12-19T04:28:37.747Z,100850.34
2022-12-19T04:31:07.806Z,100847.44
2022-12-19T04:33:36.205Z,100837.59
2022-12-19T04:36:06.598Z,100853.06
2022-12-19T04:38:35.004Z,100851.53
2022-12-19T04:41:03.448Z,100838.31
2022-12-19T04:43:31.833Z,100840.38
2022-12-19T04:46:00.226Z,100839.91
2022-12-19T04:48:28.804Z,100838.59
2022-12-19T04:50:57.615Z,100839.31
2022-12-19T04:53:27.317Z,100835.81
2022-12-19T04:56:02.472Z,100830.44
2022-12-19T04:58:31.220Z,100824.06
2022-12-19T05:01:03.381Z,100821.41
2022-12-19T05:03:32.059Z,100823.13
2022-12-19T05:06:08.927Z,100824.03
2022-12-19T05:08:41.149Z,100814.75
2022-12-19T05:11:14.586Z,100816.16
2022-12-19T05:13:47.495Z,100819.56
2022-12-19T05:16:16.133Z,100827.38
2022-12-19T05:18:45.332Z,100821.66
2022-12-19T05:21:14.155Z,100833.72
2022-12-19T05:23:44.084Z,100829.63
2022-12-19T05:26:13.342Z,100828.31
2022-12-19T05:28:42.082Z,100836.78
2022-12-19T05:31:13.204Z,100846.97
2022-12-19T05:33:43.357Z,100838.03
2022-12-19T05:36:13.198Z,100835.47
2022-12-19T05:38:43.589Z,100825.47
2022-12-19T05:41:19.282Z,100813.78
2022-12-19T05:43:52.675Z,100832.59
2022-12-19T05:46:21.767Z,100833.25
2022-12-19T05:48:50.815Z,100848.34
2022-12-19T05:51:20.949Z,100843.56
2022-12-19T05:53:50.832Z,100842.38
2022-12-19T05:56:21.310Z,100834.72
2022-12-19T05:58:51.011Z,100835.56
2022-12-19T06:01:22.714Z,100838.75
2022-12-19T06:03:51.802Z,100836.91
2022-12-19T06:06:22.858Z,100844.84
2022-12-19T06:08:57.542Z,100845.22
2022-12-19T06:11:26.900Z,100849.97
2022-12-19T06:13:55.560Z,100846.75
2022-12-19T06:16:25.420Z,100849.81
2022-12-19T06:18:53.825Z,100855.63
2022-12-19T06:21:24.777Z,100852.06
2022-12-19T06:23:55.554Z,100856.63
2022-12-19T06:26:24.171Z,100846.81
2022-12-19T06:28:53.951Z,100845.13
2022-12-19T06:31:24.955Z,100846.81
2022-12-19T06:33:53.794Z,100853.91
2022-12-19T06:36:24.796Z,100850.84
2022-12-19T06:38:57.880Z,100849.66
2022-12-19T06:41:44.377Z,100850.31
2022-12-19T06:44:15.991Z,100851.00
2022-12-19T06:46:45.150Z,100853.38
2022-12-19T06:49:13.648Z,100850.13
2022-12-19T06:51:42.811Z,100857.72
2022-12-19T06:54:13.586Z,100875.31
2022-12-19T06:56:44.337Z,100873.94
2022-12-19T06:59:15.354Z,100873.59
2022-12-19T07:01:57.130Z,100877.81
2022-12-19T07:04:32.359Z,100880.34
2022-12-19T07:07:00.798Z,100882.53
2022-12-19T07:09:31.670Z,100873.56
2022-12-19T07:12:00.110Z,100879.00
2022-12-19T07:14:28.546Z,100891.53
2022-12-19T07:16:59.347Z,100888.47
2022-12-19T07:19:28.883Z,100893.69
2022-12-19T07:21:57.611Z,100892.84
2022-12-19T07:24:26.015Z,100895.56
2022-12-19T07:26:55.815Z,100909.13
2022-12-19T07:29:24.181Z,100911.69
2022-12-19T07:31:52.588Z,100915.22
2022-12-19T07:34:21.216Z,100905.06
2022-12-19T07:36:52.678Z,100913.00
2022-12-19T07:39:21.880Z,100920.97
2022-12-19T07:41:50.278Z,100912.47
2022-12-19T07:44:20.036Z,100914.19
2022-12-19T07:46:48.412Z,100917.56
2022-12-19T07:49:22.336Z,100914.00
2022-12-19T07:51:51.766Z,100919.22
2022-12-19T07:54:20.151Z,100905.50
2022-12-19T07:56:48.670Z,100918.88
2022-12-19T07:59:17.225Z,100919.34
2022-12-19T08:01:47.147Z,100926.31
2022-12-19T08:04:15.727Z,100925.59
2022-12-19T08:06:44.820Z,100925.88
2022-12-19T08:09:13.509Z,100936.22
2022-12-19T08:11:41.892Z,100937.72
2022-12-19T08:14:10.346Z,100933.81
2022-12-19T08:17:03.178Z,100931.41
2022-12-19T08:19:28.555Z,100941.91
2022-12-19T08:21:57.063Z,100929.66
2022-12-19T08:24:25.507Z,100929.13
2022-12-19T08:26:53.955Z,100927.72
2022-12-19T08:29:22.616Z,100928.56
2022-12-19T08:31:51.160Z,100939.94
2022-12-19T08:34:19.905Z,100942.09
2022-12-19T08:36:49.712Z,100945.09
2022-12-19T08:39:18.325Z,100957.31
2022-12-19T08:41:46.729Z,100954.06
2022-12-19T08:44:15.506Z,100952.47
2022-12-19T08:46:49.665Z,100964.50
2022-12-19T08:49:19.759Z,100958.69
2022-12-19T08:51:50.240Z,100961.88
2022-12-19T08:54:18.780Z,100969.69
2022-12-19T08:56:47.376Z,100955.69
2022-12-19T08:59:23.635Z,100967.25
2022-12-19T09:01:59.467Z,100960.13
2022-12-19T09:05:09.580Z,100952.16
2022-12-19T09:07:18.188Z,100950.94
2022-12-19T09:09:46.748Z,100958.47
2022-12-19T09:12:17.199Z,100955.94
2022-12-19T09:14:45.839Z,100972.97
2022-12-19T09:17:14.645Z,100948.03
2022-12-19T09:19:45.917Z,100963.03
2022-12-19T09:22:17.970Z,100970.34
2022-12-19T09:24:46.920Z,100973.06
2022-12-19T09:27:15.343Z,100962.19
2022-12-19T09:29:44.412Z,100973.91
2022-12-19T09:32:13.212Z,100978.13
2022-12-19T09:34:41.765Z,100974.16
2022-12-19T09:37:16.812Z,100970.44
2022-12-19T09:39:48.487Z,100970.91
2022-12-19T09:42:52.047Z,100959.88
2022-12-19T09:45:43.611Z,100960.53
2022-12-19T09:48:24.113Z,100952.69
2022-12-19T09:51:09.637Z,100966.94
2022-12-19T09:53:54.430Z,100967.59
2022-12-19T09:56:30.552Z,100958.88
2022-12-19T09:59:13.238Z,100962.91
2022-12-19T10:01:55.578Z,100961.91
2022-12-19T10:04:27.963Z,100955.41
2022-12-19T10:07:21.975Z,100969.88
2022-12-19T10:11:56.364Z,100967.34
2022-12-19T10:13:00.078Z,100968.69
2022-12-19T10:15:44.897Z,100978.72
2022-12-19T10:18:39.184Z,100987.47
2022-12-19T10:21:12.998Z,100993.91
2022-12-19T10:24:11.151Z,100989.88
2022-12-19T10:26:46.586Z,100983.59
2022-12-19T10:29:57.492Z,100982.28
2022-12-19T10:32:37.748Z,100966.31
2022-12-19T10:35:16.215Z,100967.53
2022-12-19T10:37:52.177Z,100963.78
2022-12-19T10:40:29.424Z,100966.13
2022-12-19T10:43:10.991Z,100957.59
2022-12-19T10:45:49.566Z,100948.41
2022-12-19T10:48:27.720Z,100953.28
2022-12-19T10:51:00.615Z,100957.53
2022-12-19T10:53:35.299Z,100945.78
2022-12-19T10:56:14.275Z,100933.19
2022-12-19T10:58:45.827Z,100941.19
2022-12-19T11:01:23.333Z,100937.91
2022-12-19T11:04:23.121Z,100941.09
2022-12-19T11:07:05.667Z,100939.66
2022-12-19T11:09:40.017Z,100925.69
2022-12-19T11:15:45.959Z,100925.31
2022-12-19T11:20:45.214Z,100933.28
2022-12-19T11:26:24.828Z,100928.31
2022-12-19T11:29:27.156Z,100919.31
2022-12-19T11:29:38.944Z,100904.63
2022-12-19T11:30:41.547Z,100904.00
2022-12-19T11:32:43.865Z,100888.88
2022-12-19T11:35:24.648Z,100896.41
2022-12-19T11:37:57.381Z,100876.50
2022-12-19T11:40:34.679Z,100875.84
2022-12-19T11:43:43.376Z,100882.34
2022-12-19T11:46:04.105Z,100864.50
2022-12-19T11:48:41.351Z,100859.91
2022-12-19T11:51:23.579Z,100854.47
2022-12-19T11:54:03.543Z,100852.75
2022-12-19T11:56:31.990Z,100855.69
2022-12-19T11:59:04.309Z,100848.75
2022-12-19T12:01:53.275Z,100837.00
2022-12-19T12:04:49.300Z,100835.50
2022-12-19T12:07:42.320Z,100860.00
2022-12-19T12:15:37.938Z,100854.94
2022-12-19T12:19:44.387Z,100836.28
2022-12-19T12:26:24.256Z,100837.31
2022-12-19T12:31:20.197Z,100836.09
2022-12-19T12:31:28.475Z,100821.47
2022-12-19T12:31:56.214Z,100827.56
2022-12-19T12:35:16.614Z,100840.88
2022-12-19T12:35:52.365Z,100845.66
2022-12-19T12:38:34.361Z,100832.63
2022-12-19T12:41:20.586Z,100828.84
2022-12-19T12:44:08.544Z,100816.97
2022-12-19T12:46:41.462Z,100819.69
2022-12-19T12:49:33.891Z,100817.81
2022-12-19T12:52:04.251Z,100811.16
2022-12-19T12:54:39.159Z,100811.59
2022-12-19T12:57:07.625Z,100811.22
2022-12-19T12:59:36.027Z,100803.50
2022-12-19T13:02:18.271Z,100815.69
2022-12-19T13:04:59.026Z,100820.97
2022-12-19T13:07:42.530Z,100826.41
2022-12-19T13:10:26.373Z,100822.81
2022-12-19T13:13:14.998Z,100818.22
2022-12-19T13:15:46.193Z,100807.16
2022-12-19T13:18:35.171Z,100801.69
2022-12-19T13:21:08.851Z,100810.06
2022-12-19T13:23:49.400Z,100816.53
2022-12-19T13:26:52.399Z,100821.53
2022-12-19T13:29:35.026Z,100817.09
2022-12-19T13:32:16.952Z,100812.88
2022-12-19T13:35:28.215Z,100822.75
2022-12-19T13:39:50.679Z,100825.91
2022-12-19T13:40:59.895Z,100828.63
2022-12-19T13:43:48.297Z,100813.16
2022-12-19T13:46:41.554Z,100804.16
2022-12-19T13:49:16.381Z,100812.16
2022-12-19T13:51:49.499Z,100801.44
2022-12-19T13:54:24.012Z,100805.72
2022-12-19T13:56:54.302Z,100801.50
2022-12-19T13:59:27.684Z,100805.28
2022-12-19T14:01:56.777Z,100813.22
2022-12-19T14:04:31.204Z,100806.94
2022-12-19T14:07:04.663Z,100813.63
2022-12-19T14:11:32.717Z,100822.81
2022-12-19T14:13:46.095Z,100829.28
2022-12-19T14:15:45.112Z,100814.38
2022-12-19T14:18:42.603Z,100805.78
2022-12-19T14:22:11.848Z,100811.25
2022-12-19T14:24:18.975Z,100809.44
2022-12-19T14:28:23.736Z,100803.97
2022-12-19T14:30:28.908Z,100816.13
2022-12-19T14:33:53.578Z,100821.75
2022-12-19T14:36:10.922Z,100803.28
2022-12-19T14:39:20.872Z,100812.88
2022-12-19T14:41:42.197Z,100797.31
2022-12-19T14:52:25.876Z,100783.03
2022-12-19T14:54:06.516Z,100780.06
2022-12-19T14:54:25.676Z,100782.56
2022-12-19T14:54:30.695Z,100778.72
2022-12-19T14:56:16.725Z,100771.78
2022-12-19T14:58:53.873Z,100773.06
2022-12-19T15:01:26.488Z,100769.84
2022-12-19T15:04:47.661Z,100763.19
2022-12-19T15:07:08.176Z,100765.91
2022-12-19T15:11:02.904Z,100767.78
2022-12-19T15:14:48.492Z,100776.78
2022-12-19T15:16:05.893Z,100780.94
2022-12-19T15:18:42.720Z,100776.53
2022-12-19T15:21:14.341Z,100786.56
2022-12-19T15:23:45.910Z,100789.28
2022-12-19T15:26:18.039Z,100795.75
2022-12-19T15:28:51.163Z,100799.72
2022-12-19T15:31:32.428Z,100798.84
2022-12-19T15:36:49.411Z,100804.50
2022-12-19T15:39:19.836Z,100812.00
2022-12-19T15:41:51.829Z,100810.50
2022-12-19T15:44:27.384Z,100806.75
2022-12-19T15:46:56.084Z,100808.44
2022-12-19T15:49:24.597Z,100812.81
2022-12-19T15:51:53.378Z,100809.28
2022-12-19T15:54:48.843Z,100818.28
2022-12-19T15:57:25.704Z,100827.13
2022-12-19T15:59:54.666Z,100807.88
2022-12-19T16:02:42.728Z,100807.66
2022-12-19T16:05:16.942Z,100822.97
2022-12-19T16:07:46.321Z,100815.25
2022-12-19T16:10:17.468Z,100816.59
2022-12-19T16:12:49.761Z,100808.22
2022-12-19T16:15:26.434Z,100810.94
2022-12-19T16:17:55.883Z,100807.38
2022-12-19T16:20:26.916Z,100804.66
2022-12-19T16:22:56.129Z,100802.97
2022-12-19T16:25:33.243Z,100804.84
2022-12-19T16:28:03.528Z,100803.63
2022-12-19T16:30:34.842Z,100796.13
2022-12-19T16:33:03.324Z,100791.53
2022-12-19T16:36:03.089Z,100777.72
2022-12-19T16:38:22.140Z,100779.41
2022-12-19T16:40:53.411Z,100775.63
2022-12-19T16:43:29.621Z,100772.91
2022-12-19T16:46:01.583Z,100773.78
2022-12-19T16:48:31.324Z,100766.25
2022-12-19T16:51:00.896Z,100770.84
2022-12-19T16:53:29.523Z,100751.78
2022-12-19T16:56:00.742Z,100750.94
2022-12-19T16:58:30.634Z,100744.47
2022-12-19T17:00:59.216Z,100740.72
2022-12-19T17:03:36.276Z,100729.66
2022-12-19T17:06:05.755Z,100725.06
2022-12-19T17:08:34.434Z,100722.13
2022-12-19T17:11:04.319Z,100733.22
2022-12-19T17:13:33.672Z,100745.97
2022-12-19T17:16:02.672Z,100745.13
2022-12-19T17:18:35.892Z,100745.34
2022-12-19T17:21:04.580Z,100748.91
2022-12-19T17:23:33.471Z,100749.28
2022-12-19T17:26:03.391Z,100745.06
2022-12-19T17:28:32.291Z,100746.28
2022-12-19T17:31:05.568Z,100752.56
2022-12-19T17:33:37.495Z,100754.44
2022-12-19T17:36:08.100Z,100755.94
2022-12-19T17:38:37.048Z,100765.81
2022-12-19T17:41:07.189Z,100753.22
2022-12-19T17:43:35.582Z,100763.25
2022-12-19T17:46:04.752Z,100758.03
2022-12-19T17:48:34.523Z,100756.31
2022-12-19T17:51:04.040Z,100749.22
2022-12-19T17:53:32.630Z,100744.59
2022-12-19T17:56:01.013Z,100752.94
2022-12-19T17:58:30.979Z,100750.22
2022-12-19T18:00:59.488Z,100756.91
2022-12-19T18:03:28.256Z,100742.66
2022-12-19T18:05:57.872Z,100729.25
2022-12-19T18:08:29.664Z,100730.47
2022-12-19T18:11:00.631Z,100732.72
2022-12-19T18:13:32.828Z,100740.22
2022-12-19T18:16:04.207Z,100742.31
2022-12-19T18:18:37.084Z,100740.63
2022-12-19T18:21:06.588Z,100736.00
2022-12-19T18:23:35.339Z,100735.19
2022-12-19T18:26:03.918Z,100731.63
2022-12-19T18:28:34.411Z,100728.91
2022-12-19T18:31:11.699Z,100730.78
2022-12-19T18:33:42.974Z,100727.03
2022-12-19T18:36:20.410Z,100731.63
2022-12-19T18:38:49.390Z,100721.59
2022-12-19T18:41:19.768Z,100727.84
2022-12-19T18:43:50.574Z,100723.91
2022-12-19T18:46:25.132Z,100714.91
2022-12-19T18:48:53.972Z,100706.72
2022-12-19T18:51:24.589Z,100717.63
2022-12-19T18:53:53.908Z,100721.19
2022-12-19T18:56:22.564Z,100705.91
2022-12-19T18:58:52.606Z,100698.56
2022-12-19T19:01:23.006Z,100701.28
2022-12-19T19:03:56.035Z,100702.53
2022-12-19T19:06:28.549Z,100707.13
2022-12-19T19:08:58.576Z,100698.13
2022-12-19T19:11:29.401Z,100702.72
2022-12-19T19:13:59.533Z,100690.34
2022-12-19T19:16:29.090Z,100698.91
2022-12-19T19:18:59.827Z,100707.25
2022-12-19T19:21:33.527Z,100698.25
2022-12-19T19:24:08.286Z,100694.88
2022-12-19T19:26:38.148Z,100708.47
2022-12-19T19:29:10.393Z,100698.63
2022-12-19T19:31:41.977Z,100711.59
2022-12-19T19:34:17.082Z,100700.88
2022-12-19T19:36:49.552Z,100710.09
2022-12-19T19:39:19.964Z,100712.34
2022-12-19T19:41:48.438Z,100720.66
2022-12-19T19:44:18.682Z,100696.38
2022-12-19T19:46:47.669Z,100697.41
2022-12-19T19:49:16.658Z,100696.56
2022-12-19T19:51:45.379Z,100694.03
2022-12-19T19:54:13.878Z,100689.81
2022-12-19T19:56:43.336Z,100700.69
2022-12-19T19:59:12.237Z,100684.75
2022-12-19T20:01:42.749Z,100698.34
2022-12-19T20:04:11.698Z,100699.19
2022-12-19T20:06:41.451Z,100691.25
2022-12-19T20:09:10.357Z,100684.75
2022-12-19T20:11:38.921Z,100687.31
2022-12-19T20:14:07.722Z,100689.81
2022-12-19T20:16:38.017Z,100680.81
2022-12-19T20:19:07.878Z,100682.69
2022-12-19T20:21:36.284Z,100678.94
2022-12-19T20:24:05.531Z,100681.66
2022-12-19T20:26:34.576Z,100693.19
2022-12-19T20:29:04.000Z,100693.19
2022-12-19T20:31:32.636Z,100697.13
2022-12-19T20:34:02.629Z,100709.06
2022-12-19T20:36:32.731Z,100690.84
2022-12-19T20:39:02.520Z,100678.28
2022-12-19T20:41:31.299Z,100676.44
2022-12-19T20:44:00.115Z,100682.69
2022-12-19T20:46:29.099Z,100670.78
2022-12-19T20:48:59.240Z,100660.56
2022-12-19T20:51:27.923Z,100660.75
2022-12-19T20:53:57.903Z,100657.19
2022-12-19T20:56:26.909Z,100653.81
2022-12-19T20:58:55.542Z,100647.34
2022-12-19T21:01:26.225Z,100644.44
2022-12-19T21:03:54.901Z,100639.66
2022-12-19T21:06:27.089Z,100643.41
2022-12-19T21:08:59.013Z,100649.03
2022-12-19T21:11:27.558Z,100653.47
2022-12-19T21:13:56.036Z,100666.84
2022-12-19T21:16:25.158Z,100673.78
2022-12-19T21:18:53.595Z,100664.44
2022-12-19T21:21:24.985Z,100662.56
2022-12-19T21:23:54.799Z,100670.00
2022-12-19T21:26:27.004Z,100666.47
2022-12-19T21:28:57.892Z,100677.53
2022-12-19T21:31:29.855Z,100676.03
2022-12-19T21:34:01.000Z,100663.47
2022-12-19T21:36:31.084Z,100673.31
2022-12-19T21:39:01.961Z,100670.41
2022-12-19T21:41:33.221Z,100658.69
2022-12-19T21:44:01.931Z,100641.34
2022-12-19T21:46:33.174Z,100636.72
2022-12-19T21:49:02.942Z,100649.31
2022-12-19T21:51:33.361Z,100644.91
2022-12-19T21:54:04.913Z,100644.06
2022-12-19T21:56:38.827Z,100643.03
2022-12-19T21:59:11.871Z,100631.13
2022-12-19T22:01:41.458Z,100633.63
2022-12-19T22:04:14.186Z,100645.75
2022-12-19T22:06:42.811Z,100636.72
2022-12-19T22:09:15.249Z,100637.78
2022-12-19T22:11:46.265Z,100632.53
2022-12-19T22:14:16.505Z,100627.09
2022-12-19T22:16:45.257Z,100625.41
2022-12-19T22:19:17.015Z,100616.22
2022-12-19T22:21:46.760Z,100624.56
2022-12-19T22:24:17.104Z,100626.44
2022-12-19T22:26:46.957Z,100633.75
2022-12-19T22:29:18.143Z,100640.88
2022-12-19T22:31:47.613Z,100627.50
2022-12-19T22:34:18.895Z,100613.25
2022-12-19T22:36:48.817Z,100607.97
2022-12-19T22:39:20.019Z,100589.16
2022-12-19T22:41:50.152Z,100590.00
2022-12-19T22:44:21.571Z,100591.03
2022-12-19T22:46:51.167Z,100593.94
2022-12-19T22:49:19.728Z,100601.25
2022-12-19T22:51:48.327Z,100604.81
2022-12-19T22:54:16.787Z,100604.19
2022-12-19T22:56:45.319Z,100619.00
2022-12-19T22:59:15.102Z,100609.34
2022-12-19T23:01:45.143Z,100619.56
2022-12-19T23:04:16.604Z,100604.66
2022-12-19T23:06:45.631Z,100600.47
2022-12-19T23:09:17.180Z,100594.34
2022-12-19T23:11:48.850Z,100597.28
2022-12-19T23:14:20.497Z,100589.50
2022-12-19T23:16:49.667Z,100578.81
2022-12-19T23:19:18.795Z,100585.28
2022-12-19T23:21:47.349Z,100587.34
2022-12-19T23:24:15.984Z,100584.63
2022-12-19T23:26:44.636Z,100582.13
2022-12-19T23:29:15.692Z,100579.41
2022-12-19T23:31:48.139Z,100570.59
2022-12-19T23:34:17.565Z,100581.47
2022-12-19T23:37:10.182Z,100580.41
2022-12-19T23:39:34.812Z,100588.56
2022-12-19T23:42:03.269Z,100593.19
2022-12-19T23:44:31.752Z,100595.91
2022-12-19T23:47:03.711Z,100587.75
2022-12-19T23:49:33.244Z,100591.28
2022-12-19T23:52:01.676Z,100583.53
2022-12-19T23:54:30.192Z,100579.97
2022-12-19T23:56:58.621Z,100569.09
2022-12-19T23:59:27.154Z,100571.19
